Time;durP1;ratioP1;P1;durP2;ratioP2;P2;SDS_P1;SDS_P2;PMS_P1;PMS_P2;Temp;Humidity;BMP_temperature;BMP_pressure;BME280_temperature;BME280_humidity;BME280_pressure;Samples;Min_cycle;Max_cycle;Signal;HPM_P1;HPM_P2
2024/02/21 00:01:23;;;;;;;;;;;;;;;;;;2196197;66;1660;-25
2024/02/21 00:03:55;;;;;;;;;;;;;;;;;;2197198;59;1412;-25
2024/02/21 00:06:25;;;;;;;;;;;;;;;;;;2195041;59;1292;-25
2024/02/21 00:08:56;;;;;;;;;;;;;;;;;;2195501;67;2086;-25
2024/02/21 00:11:26;;;;;;;;;;;;;;;;;;2197561;66;1479;-25
2024/02/21 00:13:56;;;;;;;;;;;;;;;;;;2194864;59;1409;-25
2024/02/21 00:16:29;;;;;;;;;;;;;;;;;;2196673;66;1254;-25
2024/02/21 00:19:00;;;;;;;;;;;;;;;;;;2195175;66;1681;-25
2024/02/21 00:21:30;;;;;;;;;;;;;;;;;;2196567;59;1388;-25
2024/02/21 00:24:00;;;;;;;;;;;;;;;;;;2191261;67;1802;-25
2024/02/21 00:26:30;;;;;;;;;;;;;;;;;;2195266;66;1600;-25
2024/02/21 00:29:01;;;;;;;;;;;;;;;;;;2195065;66;1953;-25
2024/02/21 00:31:31;;;;;;;;;;;;;;;;;;2197006;59;1143;-25
2024/02/21 00:34:02;;;;;;;;;;;;;;;;;;2197350;66;1138;-25
2024/02/21 00:36:32;;;;;;;;;;;;;;;;;;2193598;66;1305;-25
2024/02/21 00:39:03;;;;;;;;;;;;;;;;;;2197438;59;1783;-25
2024/02/21 00:41:33;;;;;;;;;;;;;;;;;;2199322;66;1443;-26
2024/02/21 00:44:05;;;;;;;;;;;;;;;;;;2198914;66;1134;-25
2024/02/21 00:46:38;;;;;;;;;;;;;;;;;;2195873;59;1322;-25
2024/02/21 00:49:08;;;;;;;;;;;;;;;;;;2195960;66;1943;-25
2024/02/21 00:51:39;;;;;;;;;;;;;;;;;;2195834;59;1516;-25
2024/02/21 00:54:09;;;;;;;;;;;;;;;;;;2202526;66;1468;-25
2024/02/21 00:56:40;;;;;;;;;;;;;;;;;;2200748;66;1349;-25
2024/02/21 00:59:11;;;;;;;;;;;;;;;;;;2199679;66;1334;-26
2024/02/21 01:01:42;;;;;;;;;;;;;;;;;;2210472;59;3903;-18
2024/02/21 01:04:19;;;;;;;;;;;;;;;;;;2217704;58;1742;-19
2024/02/21 01:06:50;;;;;;;;;;;;;;;;;;2217957;58;1978;-19
2024/02/21 01:09:20;;;;;;;;;;;;;;;;;;2221528;58;1983;-18
2024/02/21 01:11:51;;;;;;;;;;;;;;;;;;2217004;66;2429;-18
2024/02/21 01:14:21;;;;;;;;;;;;;;;;;;2222376;66;2054;-18
2024/02/21 01:16:54;;;;;;;;;;;;;;;;;;2217010;66;1828;-18
2024/02/21 01:19:25;;;;;;;;;;;;;;;;;;2220893;58;2057;-18
2024/02/21 01:21:55;;;;;;;;;;;;;;;;;;2217788;66;1986;-19
2024/02/21 01:24:26;;;;;;;;;;;;;;;;;;2214989;66;2246;-18
2024/02/21 01:26:57;;;;;;;;;;;;;;;;;;2221591;66;2648;-18
2024/02/21 01:29:30;;;;;;;;;;;;;;;;;;2221179;66;1932;-18
2024/02/21 01:32:00;;;;;;;;;;;;;;;;;;2220628;66;1887;-18
2024/02/21 01:34:32;;;;;;;;;;;;;;;;;;2220161;58;2226;-18
2024/02/21 01:37:04;;;;;;;;;;;;;;;;;;2221096;66;1892;-18
2024/02/21 01:39:35;;;;;;;;;;;;;;;;;;2220671;58;2864;-18
2024/02/21 01:42:05;;;;;;;;;;;;;;;;;;2217628;66;2516;-18
2024/02/21 01:44:37;;;;;;;;;;;;;;;;;;2221286;58;2363;-19
2024/02/21 01:47:08;;;;;;;;;;;;;;;;;;2222527;58;2448;-22
2024/02/21 01:49:40;;;;;;;;;;;;;;;;;;2220638;66;1896;-18
2024/02/21 01:52:11;;;;;;;;;;;;;;;;;;2215380;66;2730;-18
2024/02/21 01:54:42;;;;;;;;;;;;;;;;;;2219258;59;2067;-19
2024/02/21 01:57:14;;;;;;;;;;;;;;;;;;2220832;66;2295;-18
2024/02/21 01:59:46;;;;;;;;;;;;;;;;;;2218188;66;2850;-18
2024/02/21 02:02:17;;;;;;;;;;;;;;;;;;2221996;58;2099;-18
2024/02/21 02:04:48;;;;;;;;;;;;;;;;;;2224278;58;2301;-19
2024/02/21 02:07:18;;;;;;;;;;;;;;;;;;2222657;66;1974;-18
2024/02/21 02:09:49;;;;;;;;;;;;;;;;;;2225608;66;2002;-18
2024/02/21 02:12:20;;;;;;;;;;;;;;;;;;2225988;66;1802;-18
2024/02/21 02:15:06;;;;;;;;;;;;;;;;;;2224449;58;2533;-18
2024/02/21 02:17:36;;;;;;;;;;;;;;;;;;2223203;59;2675;-18
2024/02/21 02:20:07;;;;;;;;;;;;;;;;;;2225631;66;1879;-18
2024/02/21 02:22:39;;;;;;;;;;;;;;;;;;2221459;66;1926;-18
2024/02/21 02:25:09;;;;;;;;;;;;;;;;;;2224268;66;1807;-18
2024/02/21 02:27:44;;;;;;;;;;;;;;;;;;2221905;66;1658;-18
2024/02/21 02:30:15;;;;;;;;;;;;;;;;;;2222070;66;1994;-18
2024/02/21 02:32:46;;;;;;;;;;;;;;;;;;2224161;66;2401;-19
2024/02/21 02:35:16;;;;;;;;;;;;;;;;;;2221119;58;1755;-18
2024/02/21 02:37:50;;;;;;;;;;;;;;;;;;2223493;58;1965;-18
2024/02/21 02:40:22;;;;;;;;;;;;;;;;;;2221951;58;1943;-18
2024/02/21 02:42:55;;;;;;;;;;;;;;;;;;2224704;66;2300;-18
2024/02/21 02:45:28;;;;;;;;;;;;;;;;;;2224350;58;1993;-18
2024/02/21 02:47:59;;;;;;;;;;;;;;;;;;2224386;66;1731;-18
2024/02/21 02:50:29;;;;;;;;;;;;;;;;;;2224712;66;2058;-18
2024/02/21 02:52:59;;;;;;;;;;;;;;;;;;2224102;66;2241;-19
2024/02/21 02:55:30;;;;;;;;;;;;;;;;;;2222128;66;1852;-18
2024/02/21 02:58:02;;;;;;;;;;;;;;;;;;2223833;58;3284;-18
2024/02/21 03:00:36;;;;;;;;;;;;;;;;;;2223236;58;1711;-18
2024/02/21 03:03:08;;;;;;;;;;;;;;;;;;2224449;58;2776;-19
2024/02/21 03:05:38;;;;;;;;;;;;;;;;;;2220485;66;2690;-21
2024/02/21 03:08:10;;;;;;;;;;;;;;;;;;2224864;66;1941;-19
2024/02/21 03:10:41;;;;;;;;;;;;;;;;;;2223149;66;2959;-18
2024/02/21 03:13:12;;;;;;;;;;;;;;;;;;2223199;58;1829;-18
2024/02/21 03:15:43;;;;;;;;;;;;;;;;;;2223284;58;1879;-18
2024/02/21 03:18:13;;;;;;;;;;;;;;;;;;2225055;66;2407;-18
2024/02/21 03:20:43;;;;;;;;;;;;;;;;;;2224031;66;2631;-18
2024/02/21 03:23:14;;;;;;;;;;;;;;;;;;2221437;66;1973;-18
2024/02/21 03:25:46;;;;;;;;;;;;;;;;;;2224027;66;2951;-18
2024/02/21 03:28:16;;;;;;;;;;;;;;;;;;2224746;66;2674;-18
2024/02/21 03:30:47;;;;;;;;;;;;;;;;;;2224268;66;2782;-18
2024/02/21 03:33:17;;;;;;;;;;;;;;;;;;2221672;66;2294;-18
2024/02/21 03:35:48;;;;;;;;;;;;;;;;;;2224201;66;2920;-18
2024/02/21 03:38:25;;;;;;;;;;;;;;;;;;2218133;58;2718;-18
2024/02/21 03:40:55;;;;;;;;;;;;;;;;;;2224197;58;1976;-18
2024/02/21 03:43:26;;;;;;;;;;;;;;;;;;2224342;66;3046;-18
2024/02/21 03:45:56;;;;;;;;;;;;;;;;;;2225355;58;1813;-18
2024/02/21 03:48:26;;;;;;;;;;;;;;;;;;2221256;66;2972;-18
2024/02/21 03:50:57;;;;;;;;;;;;;;;;;;2219798;59;1523;-18
2024/02/21 03:53:28;;;;;;;;;;;;;;;;;;2224686;66;2649;-18
2024/02/21 03:56:03;;;;;;;;;;;;;;;;;;2223352;59;1838;-18
2024/02/21 03:58:34;;;;;;;;;;;;;;;;;;2222374;58;1772;-19
2024/02/21 04:01:11;;;;;;;;;;;;;;;;;;2222853;66;2489;-18
2024/02/21 04:03:42;;;;;;;;;;;;;;;;;;2223634;58;2392;-18
2024/02/21 04:06:12;;;;;;;;;;;;;;;;;;2221480;66;3042;-19
2024/02/21 04:08:42;;;;;;;;;;;;;;;;;;2223724;63;2017;-18
2024/02/21 04:11:13;;;;;;;;;;;;;;;;;;2219579;66;2646;-18
2024/02/21 04:13:43;;;;;;;;;;;;;;;;;;2220627;58;2212;-18
2024/02/21 04:16:17;;;;;;;;;;;;;;;;;;2223589;66;1816;-18
2024/02/21 04:18:47;;;;;;;;;;;;;;;;;;2224481;66;1517;-18
2024/02/21 04:21:18;;;;;;;;;;;;;;;;;;2225215;66;1229;-18
2024/02/21 04:23:48;;;;;;;;;;;;;;;;;;2221003;66;1487;-18
2024/02/21 04:26:19;;;;;;;;;;;;;;;;;;2225747;66;1787;-20
2024/02/21 04:28:50;;;;;;;;;;;;;;;;;;2221448;66;2000;-18
2024/02/21 04:31:26;;;;;;;;;;;;;;;;;;2226305;66;1644;-18
2024/02/21 04:33:57;;;;;;;;;;;;;;;;;;2224581;66;1523;-18
2024/02/21 04:36:28;;;;;;;;;;;;;;;;;;2225137;66;1148;-19
2024/02/21 04:38:59;;;;;;;;;;;;;;;;;;2223791;58;1957;-18
2024/02/21 04:41:29;;;;;;;;;;;;;;;;;;2224945;66;1488;-18
2024/02/21 04:44:00;;;;;;;;;;;;;;;;;;2225975;66;1154;-18
2024/02/21 04:46:32;;;;;;;;;;;;;;;;;;2224680;58;1292;-18
2024/02/21 04:49:02;;;;;;;;;;;;;;;;;;2220230;66;1940;-18
2024/02/21 04:51:32;;;;;;;;;;;;;;;;;;2225963;66;1785;-18
2024/02/21 04:54:03;;;;;;;;;;;;;;;;;;2225894;66;1225;-18
2024/02/21 04:56:35;;;;;;;;;;;;;;;;;;2226464;66;1131;-18
2024/02/21 04:59:06;;;;;;;;;;;;;;;;;;2224276;66;1668;-18
2024/02/21 05:01:36;;;;;;;;;;;;;;;;;;2221336;58;1194;-18
2024/02/21 05:04:12;;;;;;;;;;;;;;;;;;2224235;66;1399;-18
2024/02/21 05:06:42;;;;;;;;;;;;;;;;;;2225362;66;1267;-18
2024/02/21 05:09:14;;;;;;;;;;;;;;;;;;2224973;66;1997;-18
2024/02/21 05:11:45;;;;;;;;;;;;;;;;;;2223441;66;1294;-18
2024/02/21 05:14:15;;;;;;;;;;;;;;;;;;2222877;58;1625;-18
2024/02/21 05:16:46;;;;;;;;;;;;;;;;;;2224341;58;1964;-18
2024/02/21 05:19:16;;;;;;;;;;;;;;;;;;2225176;66;1256;-18
2024/02/21 05:21:49;;;;;;;;;;;;;;;;;;2224619;66;1267;-18
2024/02/21 05:24:20;;;;;;;;;;;;;;;;;;2223560;66;1342;-18
2024/02/21 05:26:51;;;;;;;;;;;;;;;;;;2221675;66;1303;-18
2024/02/21 05:29:25;;;;;;;;;;;;;;;;;;2224957;66;1939;-18
2024/02/21 05:31:58;;;;;;;;;;;;;;;;;;2224421;66;1350;-18
2024/02/21 05:34:30;;;;;;;;;;;;;;;;;;2224497;66;1238;-18
2024/02/21 05:37:01;;;;;;;;;;;;;;;;;;2220942;66;1262;-19
2024/02/21 05:39:31;;;;;;;;;;;;;;;;;;2225729;58;1788;-18
2024/02/21 05:42:03;;;;;;;;;;;;;;;;;;2224897;66;1275;-18
2024/02/21 05:44:33;;;;;;;;;;;;;;;;;;2224198;58;1356;-18
2024/02/21 05:47:04;;;;;;;;;;;;;;;;;;2223828;58;1383;-18
2024/02/21 05:49:34;;;;;;;;;;;;;;;;;;2224951;66;2000;-18
2024/02/21 05:52:05;;;;;;;;;;;;;;;;;;2226453;66;1234;-18
2024/02/21 05:54:41;;;;;;;;;;;;;;;;;;2224907;66;1629;-18
2024/02/21 05:57:14;;;;;;;;;;;;;;;;;;2219997;66;1326;-18
2024/02/21 05:59:44;;;;;;;;;;;;;;;;;;2221388;66;1431;-18
2024/02/21 06:02:18;;;;;;;;;;;;;;;;;;2224407;58;1617;-18
2024/02/21 06:04:55;;;;;;;;;;;;;;;;;;2220973;58;1709;-18
2024/02/21 06:07:25;;;;;;;;;;;;;;;;;;2225076;66;1605;-18
2024/02/21 06:09:58;;;;;;;;;;;;;;;;;;2219036;66;2145;-18
2024/02/21 06:12:29;;;;;;;;;;;;;;;;;;2225525;66;1176;-18
2024/02/21 06:14:59;;;;;;;;;;;;;;;;;;2224482;66;1626;-18
2024/02/21 06:17:30;;;;;;;;;;;;;;;;;;2221007;66;1241;-18
2024/02/21 06:20:00;;;;;;;;;;;;;;;;;;2225483;66;1907;-18
2024/02/21 06:22:31;;;;;;;;;;;;;;;;;;2218775;59;2613;-18
2024/02/21 06:25:02;;;;;;;;;;;;;;;;;;2223500;66;1215;-18
2024/02/21 06:27:32;;;;;;;;;;;;;;;;;;2224949;66;1341;-18
2024/02/21 06:30:04;;;;;;;;;;;;;;;;;;2223054;58;2158;-19
2024/02/21 06:32:34;;;;;;;;;;;;;;;;;;2223817;58;2133;-18
2024/02/21 06:35:05;;;;;;;;;;;;;;;;;;2224339;66;1224;-18
2024/02/21 06:37:36;;;;;;;;;;;;;;;;;;2225111;58;1417;-18
2024/02/21 06:40:07;;;;;;;;;;;;;;;;;;2224453;58;1845;-18
2024/02/21 06:42:40;;;;;;;;;;;;;;;;;;2225877;58;2171;-18
2024/02/21 06:45:11;;;;;;;;;;;;;;;;;;2224752;58;2423;-18
2024/02/21 06:47:43;;;;;;;;;;;;;;;;;;2224845;58;3077;-18
2024/02/21 06:50:15;;;;;;;;;;;;;;;;;;2220407;58;2144;-18
2024/02/21 06:52:45;;;;;;;;;;;;;;;;;;2225036;58;3424;-18
2024/02/21 06:55:16;;;;;;;;;;;;;;;;;;2219658;58;2642;-18
2024/02/21 06:57:48;;;;;;;;;;;;;;;;;;2221272;58;2385;-18
2024/02/21 07:00:19;;;;;;;;;;;;;;;;;;2223592;58;3219;-19
2024/02/21 07:02:55;;;;;;;;;;;;;;;;;;2223577;58;2358;-18
2024/02/21 07:05:25;;;;;;;;;;;;;;;;;;2222789;58;3266;-18
2024/02/21 07:07:56;;;;;;;;;;;;;;;;;;2223735;58;2408;-18
2024/02/21 07:10:28;;;;;;;;;;;;;;;;;;2224094;58;2188;-18
2024/02/21 07:13:00;;;;;;;;;;;;;;;;;;2222610;58;2245;-18
2024/02/21 07:15:30;;;;;;;;;;;;;;;;;;2224591;58;2567;-18
2024/02/21 07:18:01;;;;;;;;;;;;;;;;;;2224678;58;2178;-20
2024/02/21 07:20:33;;;;;;;;;;;;;;;;;;2223928;58;2058;-20
2024/02/21 07:23:04;;;;;;;;;;;;;;;;;;2224557;58;1722;-20
2024/02/21 07:25:35;;;;;;;;;;;;;;;;;;2221712;58;2181;-20
2024/02/21 07:28:05;;;;;;;;;;;;;;;;;;2221864;66;1712;-20
2024/02/21 07:30:38;;;;;;;;;;;;;;;;;;2224709;66;1935;-20
2024/02/21 07:33:09;;;;;;;;;;;;;;;;;;2224548;58;2248;-20
2024/02/21 07:35:41;;;;;;;;;;;;;;;;;;2222710;58;2640;-20
2024/02/21 07:38:18;;;;;;;;;;;;;;;;;;2222465;58;2449;-20
2024/02/21 07:40:48;;;;;;;;;;;;;;;;;;2224810;58;2066;-20
2024/02/21 07:43:19;;;;;;;;;;;;;;;;;;2221243;58;2024;-21
2024/02/21 07:45:49;;;;;;;;;;;;;;;;;;2225249;58;1358;-21
2024/02/21 07:48:24;;;;;;;;;;;;;;;;;;2214773;66;1999;-21
2024/02/21 07:50:54;;;;;;;;;;;;;;;;;;2225217;66;1434;-21
2024/02/21 07:53:25;;;;;;;;;;;;;;;;;;2218620;58;1399;-20
2024/02/21 07:55:55;;;;;;;;;;;;;;;;;;2223903;66;1157;-20
2024/02/21 07:58:25;;;;;;;;;;;;;;;;;;2223952;66;1301;-20
2024/02/21 08:00:56;;;;;;;;;;;;;;;;;;2216998;58;2618;-20
2024/02/21 08:03:26;;;;;;;;;;;;;;;;;;2221077;58;3623;-20
2024/02/21 08:06:00;;;;;;;;;;;;;;;;;;2221667;58;2444;-20
2024/02/21 08:08:31;;;;;;;;;;;;;;;;;;2222335;58;3469;-20
2024/02/21 08:11:01;;;;;;;;;;;;;;;;;;2223975;66;2046;-21
2024/02/21 08:13:31;;;;;;;;;;;;;;;;;;2225528;58;1408;-20
2024/02/21 08:16:05;;;;;;;;;;;;;;;;;;2221153;59;1302;-21
2024/02/21 08:18:38;;;;;;;;;;;;;;;;;;2222936;66;1645;-21
2024/02/21 08:21:09;;;;;;;;;;;;;;;;;;2224277;66;1459;-21
2024/02/21 08:23:40;;;;;;;;;;;;;;;;;;2220542;66;1305;-21
2024/02/21 08:26:10;;;;;;;;;;;;;;;;;;2223533;66;1382;-21
2024/02/21 08:28:42;;;;;;;;;;;;;;;;;;2224878;66;1912;-21
2024/02/21 08:31:18;;;;;;;;;;;;;;;;;;2224124;66;1254;-21
2024/02/21 08:33:48;;;;;;;;;;;;;;;;;;2225384;58;2320;-21
2024/02/21 08:36:22;;;;;;;;;;;;;;;;;;2224126;66;1218;-21
2024/02/21 08:38:52;;;;;;;;;;;;;;;;;;2224796;58;1347;-21
2024/02/21 08:41:25;;;;;;;;;;;;;;;;;;2224634;66;1407;-21
2024/02/21 08:43:55;;;;;;;;;;;;;;;;;;2224247;66;1363;-21
2024/02/21 08:46:27;;;;;;;;;;;;;;;;;;2224557;58;1495;-21
2024/02/21 08:48:59;;;;;;;;;;;;;;;;;;2223704;66;1986;-21
2024/02/21 08:51:30;;;;;;;;;;;;;;;;;;2224355;66;1394;-20
2024/02/21 08:54:01;;;;;;;;;;;;;;;;;;2223804;58;1180;-21
2024/02/21 08:56:35;;;;;;;;;;;;;;;;;;2221413;66;1481;-20
2024/02/21 08:59:05;;;;;;;;;;;;;;;;;;2223558;66;1385;-20
2024/02/21 09:01:36;;;;;;;;;;;;;;;;;;2222155;58;1274;-20
2024/02/21 09:04:07;;;;;;;;;;;;;;;;;;2220853;66;1586;-20
2024/02/21 09:06:42;;;;;;;;;;;;;;;;;;2223174;66;1495;-20
2024/02/21 09:09:20;;;;;;;;;;;;;;;;;;2223741;66;1961;-21
2024/02/21 09:11:52;;;;;;;;;;;;;;;;;;2227012;66;1281;-20
2024/02/21 09:14:22;;;;;;;;;;;;;;;;;;2224870;58;1487;-20
2024/02/21 09:16:53;;;;;;;;;;;;;;;;;;2222478;66;1518;-21
2024/02/21 09:19:23;;;;;;;;;;;;;;;;;;2225160;66;1472;-20
2024/02/21 09:21:53;;;;;;;;;;;;;;;;;;2219898;66;1301;-21
2024/02/21 09:24:24;;;;;;;;;;;;;;;;;;2221891;66;1254;-21
2024/02/21 09:26:57;;;;;;;;;;;;;;;;;;2225580;66;1322;-21
2024/02/21 09:29:29;;;;;;;;;;;;;;;;;;2224605;66;1937;-21
2024/02/21 09:32:02;;;;;;;;;;;;;;;;;;2224344;66;1210;-21
2024/02/21 09:34:33;;;;;;;;;;;;;;;;;;2222612;66;1221;-21
2024/02/21 09:37:03;;;;;;;;;;;;;;;;;;2224844;66;1435;-21
2024/02/21 09:39:33;;;;;;;;;;;;;;;;;;2226161;58;1879;-21
2024/02/21 09:42:05;;;;;;;;;;;;;;;;;;2221983;66;1378;-21
2024/02/21 09:44:39;;;;;;;;;;;;;;;;;;2225026;58;1362;-20
2024/02/21 09:47:19;;;;;;;;;;;;;;;;;;2224172;58;1530;-21
2024/02/21 09:49:56;;;;;;;;;;;;;;;;;;2226280;66;1944;-21
2024/02/21 09:52:27;;;;;;;;;;;;;;;;;;2224654;66;1286;-19
2024/02/21 09:54:58;;;;;;;;;;;;;;;;;;2225944;66;1266;-19
2024/02/21 09:57:29;;;;;;;;;;;;;;;;;;2225002;66;1797;-19
2024/02/21 10:00:00;;;;;;;;;;;;;;;;;;2221887;66;1619;-19
2024/02/21 10:02:30;;;;;;;;;;;;;;;;;;2222417;58;1213;-19
2024/02/21 10:05:01;;;;;;;;;;;;;;;;;;2225142;66;1259;-19
2024/02/21 10:07:32;;;;;;;;;;;;;;;;;;2219664;66;1629;-19
2024/02/21 10:10:03;;;;;;;;;;;;;;;;;;2222421;58;2513;-19
2024/02/21 10:12:33;;;;;;;;;;;;;;;;;;2224940;58;1628;-19
2024/02/21 10:15:05;;;;;;;;;;;;;;;;;;2225915;58;1731;-19
2024/02/21 10:17:36;;;;;;;;;;;;;;;;;;2221764;58;2099;-19
2024/02/21 10:20:10;;;;;;;;;;;;;;;;;;2220696;58;2542;-19
2024/02/21 10:22:40;;;;;;;;;;;;;;;;;;2222352;66;1541;-19
2024/02/21 10:25:12;;;;;;;;;;;;;;;;;;2224503;58;1512;-19
2024/02/21 10:27:42;;;;;;;;;;;;;;;;;;2223890;58;2249;-19
2024/02/21 10:30:18;;;;;;;;;;;;;;;;;;2221956;58;1901;-19
2024/02/21 10:32:53;;;;;;;;;;;;;;;;;;2224764;66;3590;-20
2024/02/21 10:35:33;;;;;;;;;;;;;;;;;;2225241;66;2306;-19
2024/02/21 10:38:04;;;;;;;;;;;;;;;;;;2224204;66;1549;-19
2024/02/21 10:40:34;;;;;;;;;;;;;;;;;;2218609;58;2099;-20
2024/02/21 10:43:06;;;;;;;;;;;;;;;;;;2222904;66;1676;-20
2024/02/21 10:45:36;;;;;;;;;;;;;;;;;;2224526;58;1520;-19
2024/02/21 10:48:25;;;;;;;;;;;;;;;;;;2223565;66;1633;-19
2024/02/21 10:51:14;;;;;;;;;;;;;;;;;;2226466;66;2008;-19
2024/02/21 10:53:55;;;;;;;;;;;;;;;;;;2226048;66;1401;-19
2024/02/21 10:56:48;;;;;;;;;;;;;;;;;;2224426;66;1887;-19
2024/02/21 10:59:30;;;;;;;;;;;;;;;;;;2225156;66;1620;-19
2024/02/21 11:02:00;;;;;;;;;;;;;;;;;;2225474;58;1823;-19
2024/02/21 11:04:36;;;;;;;;;;;;;;;;;;2225328;66;1400;-19
2024/02/21 11:07:07;;;;;;;;;;;;;;;;;;2224765;66;1926;-19
2024/02/21 11:09:37;;;;;;;;;;;;;;;;;;2225321;66;1919;-19
2024/02/21 11:12:08;;;;;;;;;;;;;;;;;;2224985;66;1261;-19
2024/02/21 11:14:42;;;;;;;;;;;;;;;;;;2222165;66;1894;-19
2024/02/21 11:17:27;;;;;;;;;;;;;;;;;;2225259;66;1602;-19
2024/02/21 11:20:16;;;;;;;;;;;;;;;;;;2224764;66;1480;-19
2024/02/21 11:22:47;;;;;;;;;;;;;;;;;;2223125;66;1258;-19
2024/02/21 11:25:22;;;;;;;;;;;;;;;;;;2220903;66;1598;-19
2024/02/21 11:28:02;;;;;;;;;;;;;;;;;;2224799;58;1709;-19
2024/02/21 11:30:37;;;;;;;;;;;;;;;;;;2222384;66;2011;-19
2024/02/21 11:33:16;;;;;;;;;;;;;;;;;;2224493;66;1430;-19
2024/02/21 11:35:46;;;;;;;;;;;;;;;;;;2224961;66;1509;-19
2024/02/21 11:38:17;;;;;;;;;;;;;;;;;;2225132;66;1511;-19
2024/02/21 11:40:49;;;;;;;;;;;;;;;;;;2225796;58;2053;-19
2024/02/21 11:43:19;;;;;;;;;;;;;;;;;;2223380;66;2057;-19
2024/02/21 11:45:50;;;;;;;;;;;;;;;;;;2223168;58;2346;-21
2024/02/21 11:48:20;;;;;;;;;;;;;;;;;;2220369;58;3021;-21
2024/02/21 11:51:07;;;;;;;;;;;;;;;;;;;;;
2024/02/21 11:53:37;;;;;;;;;;;;;;;;;;2223487;58;1742;-21
2024/02/21 11:56:15;;;;;;;;;;;;;;;;;;2223573;58;2622;-21
2024/02/21 11:59:06;;;;;;;;;;;;;;;;;;2223689;66;2574;-21
2024/02/21 12:01:37;;;;;;;;;;;;;;;;;;2222545;58;2499;-21
2024/02/21 12:04:11;;;;;;;;;;;;;;;;;;2225358;58;1634;-21
2024/02/21 12:06:42;;;;;;;;;;;;;;;;;;2223942;66;1475;-21
2024/02/21 12:09:16;;;;;;;;;;;;;;;;;;2223015;58;1939;-22
2024/02/21 12:11:56;;;;;;;;;;;;;;;;;;2225249;66;1595;-21
2024/02/21 12:14:31;;;;;;;;;;;;;;;;;;2221058;58;1783;-21
2024/02/21 12:17:16;;;;;;;;;;;;;;;;;;;;;
2024/02/21 12:19:46;;;;;;;;;;;;;;;;;;2225014;59;1968;-21
2024/02/21 12:22:18;;;;;;;;;;;;;;;;;;2219237;58;2613;-21
2024/02/21 12:24:50;;;;;;;;;;;;;;;;;;2222803;58;2746;-21
2024/02/21 12:27:21;;;;;;;;;;;;;;;;;;2218878;58;2342;-21
2024/02/21 12:29:52;;;;;;;;;;;;;;;;;;2224069;58;2395;-21
2024/02/21 12:32:22;;;;;;;;;;;;;;;;;;2221869;58;2324;-21
2024/02/21 12:34:53;;;;;;;;;;;;;;;;;;2220091;66;2407;-21
2024/02/21 12:37:26;;;;;;;;;;;;;;;;;;2219221;59;1678;-21
2024/02/21 12:40:00;;;;;;;;;;;;;;;;;;2224934;58;1756;-21
2024/02/21 12:42:30;;;;;;;;;;;;;;;;;;2223213;66;1253;-21
2024/02/21 12:45:03;;;;;;;;;;;;;;;;;;2223159;58;1808;-21
2024/02/21 12:47:35;;;;;;;;;;;;;;;;;;2223770;58;2208;-21
2024/02/21 12:50:06;;;;;;;;;;;;;;;;;;2212851;58;5866;-21
2024/02/21 12:52:41;;;;;;;;;;;;;;;;;;2213920;58;5540;-21
2024/02/21 12:55:13;;;;;;;;;;;;;;;;;;2212458;58;32855;-21
2024/02/21 12:57:45;;;;;;;;;;;;;;;;;;2215394;58;5351;-21
2024/02/21 13:00:17;;;;;;;;;;;;;;;;;;2216199;58;5578;-21
2024/02/21 13:02:47;;;;;;;;;;;;;;;;;;2219926;58;5529;-21
2024/02/21 13:05:20;;;;;;;;;;;;;;;;;;2212013;58;5370;-22
2024/02/21 13:07:55;;;;;;;;;;;;;;;;;;2213734;58;5410;-21
2024/02/21 13:10:33;;;;;;;;;;;;;;;;;;2211475;58;9047;-21
2024/02/21 13:13:04;;;;;;;;;;;;;;;;;;2216133;58;5435;-21
2024/02/21 13:15:42;;;;;;;;;;;;;;;;;;2216848;58;5302;-21
2024/02/21 13:18:13;;;;;;;;;;;;;;;;;;2218352;58;2409;-21
2024/02/21 13:20:43;;;;;;;;;;;;;;;;;;2219746;66;2771;-21
2024/02/21 13:23:17;;;;;;;;;;;;;;;;;;2221394;58;2308;-21
2024/02/21 13:25:49;;;;;;;;;;;;;;;;;;2219613;58;2672;-21
2024/02/21 13:28:19;;;;;;;;;;;;;;;;;;2218498;66;3062;-21
2024/02/21 13:31:08;;;;;;;;;;;;;;;;;;;;;
2024/02/21 13:33:38;;;;;;;;;;;;;;;;;;2216070;66;2700;-21
2024/02/21 13:36:09;;;;;;;;;;;;;;;;;;2218709;58;2721;-21
2024/02/21 13:39:25;;;;;;;;;;;;;;;;;;2219719;58;2668;-50
2024/02/21 13:41:56;;;;;;;;;;;;;;;;;;2221202;58;1870;-19
2024/02/21 13:44:26;;;;;;;;;;;;;;;;;;2217916;58;2643;-19
2024/02/21 13:46:56;;;;;;;;;;;;;;;;;;2220459;58;2794;-19
2024/02/21 13:49:28;;;;;;;;;;;;;;;;;;2218540;66;2957;-19
2024/02/21 13:52:03;;;;;;;;;;;;;;;;;;2217470;66;2407;-19
2024/02/21 13:54:34;;;;;;;;;;;;;;;;;;2219310;66;2482;-19
2024/02/21 13:57:04;;;;;;;;;;;;;;;;;;2215837;59;2716;-19
2024/02/21 13:59:34;;;;;;;;;;;;;;;;;;2220226;66;2699;-19
2024/02/21 14:02:07;;;;;;;;;;;;;;;;;;2217076;59;2030;-19
2024/02/21 14:04:42;;;;;;;;;;;;;;;;;;2217127;58;1922;-19
2024/02/21 14:07:13;;;;;;;;;;;;;;;;;;2221305;66;1985;-19
2024/02/21 14:09:43;;;;;;;;;;;;;;;;;;2219187;58;2654;-19
2024/02/21 14:12:16;;;;;;;;;;;;;;;;;;2214253;58;3291;-19
2024/02/21 14:14:47;;;;;;;;;;;;;;;;;;2219357;58;2699;-19
2024/02/21 14:17:18;;;;;;;;;;;;;;;;;;2221091;66;1852;-19
2024/02/21 14:19:48;;;;;;;;;;;;;;;;;;2217373;66;3138;-19
2024/02/21 14:22:20;;;;;;;;;;;;;;;;;;2221123;66;1781;-19
2024/02/21 14:24:51;;;;;;;;;;;;;;;;;;2220397;66;1863;-19
2024/02/21 14:27:21;;;;;;;;;;;;;;;;;;2220474;66;1824;-19
2024/02/21 14:29:54;;;;;;;;;;;;;;;;;;2220702;58;2087;-19
2024/02/21 14:32:25;;;;;;;;;;;;;;;;;;2216026;66;3001;-19
2024/02/21 14:34:55;;;;;;;;;;;;;;;;;;2221307;66;2044;-19
2024/02/21 14:37:26;;;;;;;;;;;;;;;;;;2219596;59;1849;-19
2024/02/21 14:39:56;;;;;;;;;;;;;;;;;;2221186;58;3269;-19
2024/02/21 14:42:27;;;;;;;;;;;;;;;;;;2213749;66;2999;-19
2024/02/21 14:45:03;;;;;;;;;;;;;;;;;;2217935;58;2327;-19
2024/02/21 14:47:34;;;;;;;;;;;;;;;;;;2219794;66;2964;-19
2024/02/21 14:50:04;;;;;;;;;;;;;;;;;;2221785;66;1917;-19
2024/02/21 14:52:36;;;;;;;;;;;;;;;;;;2214547;58;2819;-19
2024/02/21 14:55:06;;;;;;;;;;;;;;;;;;2217397;58;2864;-19
2024/02/21 14:57:37;;;;;;;;;;;;;;;;;;2215524;58;2690;-19
2024/02/21 15:00:08;;;;;;;;;;;;;;;;;;2218251;66;2714;-19
2024/02/21 15:02:39;;;;;;;;;;;;;;;;;;2218809;58;2603;-19
2024/02/21 15:05:13;;;;;;;;;;;;;;;;;;2220974;66;1782;-19
2024/02/21 15:07:44;;;;;;;;;;;;;;;;;;2221076;66;2641;-19
2024/02/21 15:10:24;;;;;;;;;;;;;;;;;;2220797;66;2301;-19
2024/02/21 15:12:54;;;;;;;;;;;;;;;;;;2220163;66;1833;-19
2024/02/21 15:15:25;;;;;;;;;;;;;;;;;;2217486;58;1935;-19
2024/02/21 15:17:55;;;;;;;;;;;;;;;;;;2220448;66;2034;-19
2024/02/21 15:20:29;;;;;;;;;;;;;;;;;;2220525;66;3076;-19
2024/02/21 15:23:04;;;;;;;;;;;;;;;;;;2221697;66;2650;-19
2024/02/21 15:25:35;;;;;;;;;;;;;;;;;;2219900;58;2584;-19
2024/02/21 15:28:06;;;;;;;;;;;;;;;;;;2220587;66;2533;-18
2024/02/21 15:30:36;;;;;;;;;;;;;;;;;;2215078;66;1955;-18
2024/02/21 15:33:06;;;;;;;;;;;;;;;;;;2220187;58;2600;-19
2024/02/21 15:35:37;;;;;;;;;;;;;;;;;;2215188;58;2949;-19
2024/02/21 15:38:10;;;;;;;;;;;;;;;;;;2219950;58;2379;-19
2024/02/21 15:40:41;;;;;;;;;;;;;;;;;;2219200;58;3468;-18
2024/02/21 15:43:11;;;;;;;;;;;;;;;;;;2214914;66;2332;-19
2024/02/21 15:45:42;;;;;;;;;;;;;;;;;;2218429;58;2441;-18
2024/02/21 15:48:13;;;;;;;;;;;;;;;;;;2220565;66;1789;-18
2024/02/21 15:50:45;;;;;;;;;;;;;;;;;;2216157;59;2632;-19
2024/02/21 15:53:17;;;;;;;;;;;;;;;;;;2219827;66;2814;-18
2024/02/21 15:55:49;;;;;;;;;;;;;;;;;;2217622;66;1997;-19
2024/02/21 15:58:22;;;;;;;;;;;;;;;;;;2220916;66;2633;-18
2024/02/21 16:00:53;;;;;;;;;;;;;;;;;;2218796;66;1835;-18
2024/02/21 16:03:23;;;;;;;;;;;;;;;;;;2217326;66;1889;-18
2024/02/21 16:05:54;;;;;;;;;;;;;;;;;;2215958;58;2011;-19
2024/02/21 16:08:25;;;;;;;;;;;;;;;;;;2219330;66;1872;-18
2024/02/21 16:10:56;;;;;;;;;;;;;;;;;;2215959;59;3348;-18
2024/02/21 16:13:28;;;;;;;;;;;;;;;;;;2217839;59;1759;-26
2024/02/21 16:15:58;;;;;;;;;;;;;;;;;;2214794;66;2619;-18
2024/02/21 16:18:28;;;;;;;;;;;;;;;;;;2222024;66;1919;-18
2024/02/21 16:20:59;;;;;;;;;;;;;;;;;;2219589;66;2334;-19
2024/02/21 16:23:32;;;;;;;;;;;;;;;;;;2218903;66;2633;-18
2024/02/21 16:26:05;;;;;;;;;;;;;;;;;;2218760;66;2320;-18
2024/02/21 16:28:41;;;;;;;;;;;;;;;;;;2219275;66;1984;-18
2024/02/21 16:31:11;;;;;;;;;;;;;;;;;;2221063;58;2516;-18
2024/02/21 16:33:42;;;;;;;;;;;;;;;;;;2215489;66;2688;-18
2024/02/21 16:36:22;;;;;;;;;;;;;;;;;;2219782;66;2008;-18
2024/02/21 16:38:52;;;;;;;;;;;;;;;;;;2220971;58;2375;-19
2024/02/21 16:41:23;;;;;;;;;;;;;;;;;;2220766;58;3258;-19
2024/02/21 16:43:54;;;;;;;;;;;;;;;;;;2220338;58;2596;-18
2024/02/21 16:46:27;;;;;;;;;;;;;;;;;;2220475;66;1853;-18
2024/02/21 16:49:01;;;;;;;;;;;;;;;;;;2219883;66;2609;-18
2024/02/21 16:51:31;;;;;;;;;;;;;;;;;;2216165;58;2042;-18
2024/02/21 16:54:07;;;;;;;;;;;;;;;;;;2216520;58;1941;-18
2024/02/21 16:56:38;;;;;;;;;;;;;;;;;;2219175;66;2210;-18
2024/02/21 16:59:09;;;;;;;;;;;;;;;;;;2221489;58;3434;-18
2024/02/21 17:01:41;;;;;;;;;;;;;;;;;;2218395;66;2280;-18
2024/02/21 17:04:14;;;;;;;;;;;;;;;;;;2219512;58;2709;-18
2024/02/21 17:06:46;;;;;;;;;;;;;;;;;;2219050;66;1888;-18
2024/02/21 17:09:19;;;;;;;;;;;;;;;;;;2222235;66;2703;-18
2024/02/21 17:11:52;;;;;;;;;;;;;;;;;;2218200;66;2237;-18
2024/02/21 17:14:25;;;;;;;;;;;;;;;;;;2220197;58;1948;-18
2024/02/21 17:16:55;;;;;;;;;;;;;;;;;;2215301;66;2149;-17
2024/02/21 17:19:28;;;;;;;;;;;;;;;;;;2216728;66;2497;-18
2024/02/21 17:21:59;;;;;;;;;;;;;;;;;;2218820;66;2756;-18
2024/02/21 17:24:35;;;;;;;;;;;;;;;;;;2221295;58;1890;-18
2024/02/21 17:27:05;;;;;;;;;;;;;;;;;;2216352;66;1962;-18
2024/02/21 17:29:35;;;;;;;;;;;;;;;;;;2216492;66;1948;-18
2024/02/21 17:32:07;;;;;;;;;;;;;;;;;;2220005;59;2237;-18
2024/02/21 17:34:41;;;;;;;;;;;;;;;;;;2218198;66;2845;-18
2024/02/21 17:37:22;;;;;;;;;;;;;;;;;;;;;
2024/02/21 17:39:54;;;;;;;;;;;;;;;;;;2217443;66;2891;-18